Time;durP1;ratioP1;P1;durP2;ratioP2;P2;SDS_P1;SDS_P2;PMS_P1;PMS_P2;Temp;Humidity;BMP_temperature;BMP_pressure;BME280_temperature;BME280_humidity;BME280_pressure;Samples;Min_cycle;Max_cycle;Signal;HPM_P1;HPM_P2
2022/03/10 00:02:02;;;;;;;48.80;30.30;;;;;;;;;;5131336;27;20023;-49
2022/03/10 00:04:29;;;;;;;46.67;29.13;;;;;;;;;;5134077;27;20083;-47
2022/03/10 00:06:55;;;;;;;52.43;31.33;;;;;;;;;;5136333;27;20378;-47
2022/03/10 00:09:21;;;;;;;50.07;30.70;;;;;;;;;;5106308;27;20023;-48
2022/03/10 00:11:47;;;;;;;51.53;29.90;;;;;;;;;;5136072;27;20047;-49
2022/03/10 00:14:14;;;;;;;49.70;30.80;;;;;;;;;;5124004;27;20103;-47
2022/03/10 00:16:40;;;;;;;49.67;29.97;;;;;;;;;;5129656;27;20027;-49
2022/03/10 00:19:06;;;;;;;51.57;31.73;;;;;;;;;;5133881;27;20026;-49
2022/03/10 00:21:32;;;;;;;52.07;30.90;;;;;;;;;;5135371;27;20027;-49
2022/03/10 00:23:58;;;;;;;52.00;31.30;;;;;;;;;;5135358;27;20026;-52
2022/03/10 00:26:24;;;;;;;54.50;30.43;;;;;;;;;;5136451;27;20019;-48
2022/03/10 00:28:50;;;;;;;50.63;29.67;;;;;;;;;;5134661;27;20479;-48
2022/03/10 00:31:16;;;;;;;46.73;28.43;;;;;;;;;;5136021;27;20034;-49
2022/03/10 00:33:42;;;;;;;53.00;28.73;;;;;;;;;;5133051;27;20027;-50
2022/03/10 00:36:08;;;;;;;52.30;29.27;;;;;;;;;;5125806;27;20034;-53
2022/03/10 00:38:34;;;;;;;44.73;28.03;;;;;;;;;;5132787;27;20019;-48
2022/03/10 00:41:00;;;;;;;51.33;28.90;;;;;;;;;;5129562;27;20100;-50
2022/03/10 00:43:26;;;;;;;51.10;30.77;;;;;;;;;;5140019;27;20027;-48
2022/03/10 00:45:52;;;;;;;57.73;32.40;;;;;;;;;;5113060;27;20175;-49
2022/03/10 00:48:18;;;;;;;50.83;31.00;;;;;;;;;;5126491;27;20114;-47
2022/03/10 00:50:44;;;;;;;53.73;31.30;;;;;;;;;;5133086;27;20551;-49
2022/03/10 00:53:11;;;;;;;57.70;33.77;;;;;;;;;;5133254;27;20075;-48
2022/03/10 00:55:37;;;;;;;53.50;30.60;;;;;;;;;;5134258;27;20023;-51
2022/03/10 00:58:03;;;;;;;55.53;30.97;;;;;;;;;;5124134;27;20026;-47
2022/03/10 01:00:30;;;;;;;57.77;32.30;;;;;;;;;;5116425;27;20472;-48
2022/03/10 01:02:56;;;;;;;51.77;31.57;;;;;;;;;;5124068;27;20518;-48
2022/03/10 01:11:29;;;;;;;55.00;33.97;;;;;;;;;;5108454;27;20549;-48
2022/03/10 01:13:55;;;;;;;61.50;33.37;;;;;;;;;;5122676;27;20045;-47
2022/03/10 01:16:21;;;;;;;55.33;32.87;;;;;;;;;;5133322;27;20011;-48
2022/03/10 01:18:47;;;;;;;56.70;32.80;;;;;;;;;;5135102;27;20035;-46
2022/03/10 01:21:14;;;;;;;60.93;32.67;;;;;;;;;;5131349;27;20102;-48
2022/03/10 01:23:40;;;;;;;58.37;32.43;;;;;;;;;;5118073;27;20028;-52
2022/03/10 01:26:06;;;;;;;54.93;34.03;;;;;;;;;;5124019;27;20020;-50
2022/03/10 01:28:32;;;;;;;54.17;32.80;;;;;;;;;;5132359;27;20390;-50
2022/03/10 01:30:58;;;;;;;54.23;32.57;;;;;;;;;;5130830;27;20027;-49
2022/03/10 01:33:24;;;;;;;56.40;33.17;;;;;;;;;;5133346;27;20062;-49
2022/03/10 01:35:50;;;;;;;58.50;33.87;;;;;;;;;;5134768;27;20019;-47
2022/03/10 01:38:16;;;;;;;60.13;34.47;;;;;;;;;;5113188;27;20026;-47
2022/03/10 01:40:44;;;;;;;53.93;34.17;;;;;;;;;;5134448;27;20023;-47
2022/03/10 01:43:10;;;;;;;57.13;33.20;;;;;;;;;;5102623;27;20020;-48
2022/03/10 01:45:36;;;;;;;56.60;34.53;;;;;;;;;;5133329;27;20023;-48
2022/03/10 01:48:02;;;;;;;56.10;33.93;;;;;;;;;;5133050;27;20023;-48
2022/03/10 01:50:28;;;;;;;54.33;33.50;;;;;;;;;;5134271;27;20387;-47
2022/03/10 01:52:54;;;;;;;59.57;35.27;;;;;;;;;;5133213;27;20038;-48
2022/03/10 01:55:20;;;;;;;58.33;33.97;;;;;;;;;;5133922;27;20118;-52
2022/03/10 01:57:46;;;;;;;57.67;33.43;;;;;;;;;;5133024;27;20019;-50
2022/03/10 02:00:14;;;;;;;54.53;33.00;;;;;;;;;;5134151;27;20049;-50
2022/03/10 02:02:40;;;;;;;53.97;33.37;;;;;;;;;;5133121;27;20027;-50
2022/03/10 02:05:06;;;;;;;54.87;33.77;;;;;;;;;;5133947;27;20455;-47
2022/03/10 02:10:17;;;;;;;56.38;33.67;;;;;;;;;;5120518;27;20511;-49
2022/03/10 02:12:47;;;;;;;57.47;34.63;;;;;;;;;;5131604;27;20122;-47
2022/03/10 02:17:58;;;;;;;57.78;32.72;;;;;;;;;;5122796;27;20387;-46
2022/03/10 02:20:24;;;;;;;59.37;33.40;;;;;;;;;;5112644;28;20034;-46
2022/03/10 02:23:12;;;;;;;56.87;33.37;;;;;;;;;;5126973;27;20459;-48
2022/03/10 02:25:39;;;;;;;55.50;33.57;;;;;;;;;;5117896;27;20480;-48
2022/03/10 02:28:05;;;;;;;58.20;32.77;;;;;;;;;;5131544;27;20029;-47
2022/03/10 02:30:32;;;;;;;58.67;34.53;;;;;;;;;;5133070;27;20027;-48
2022/03/10 02:32:59;;;;;;;55.20;33.50;;;;;;;;;;5131267;27;20023;-48
2022/03/10 02:35:25;;;;;;;59.20;33.43;;;;;;;;;;5098029;27;20107;-47
2022/03/10 02:37:51;;;;;;;58.30;34.37;;;;;;;;;;5131417;27;20102;-48
2022/03/10 02:40:17;;;;;;;57.33;34.47;;;;;;;;;;5125755;27;20050;-48
2022/03/10 02:42:43;;;;;;;59.30;33.40;;;;;;;;;;5130366;27;20046;-49
2022/03/10 02:45:10;;;;;;;57.80;33.70;;;;;;;;;;5114215;27;20468;-47
2022/03/10 02:47:36;;;;;;;57.23;34.00;;;;;;;;;;5127376;27;20023;-48
2022/03/10 02:50:04;;;;;;;59.53;34.13;;;;;;;;;;5121118;27;20019;-48
2022/03/10 02:52:30;;;;;;;55.10;33.33;;;;;;;;;;5125487;27;20115;-47
2022/03/10 02:54:56;;;;;;;57.80;31.13;;;;;;;;;;5131508;27;20353;-47
2022/03/10 02:57:22;;;;;;;60.47;35.20;;;;;;;;;;5131609;27;20077;-48
2022/03/10 02:59:48;;;;;;;56.23;32.63;;;;;;;;;;5133028;27;20015;-47
2022/03/10 03:02:14;;;;;;;57.53;33.47;;;;;;;;;;5130519;27;20034;-47
2022/03/10 03:04:40;;;;;;;61.73;34.13;;;;;;;;;;5131735;27;20351;-46
2022/03/10 03:07:06;;;;;;;60.00;34.97;;;;;;;;;;5128795;27;20110;-49
2022/03/10 03:09:32;;;;;;;59.20;34.57;;;;;;;;;;5116703;27;20111;-48
2022/03/10 03:11:58;;;;;;;55.70;33.77;;;;;;;;;;5102029;27;20059;-47
2022/03/10 03:14:24;;;;;;;56.60;33.60;;;;;;;;;;5131494;27;20479;-46
2022/03/10 03:16:51;;;;;;;55.37;33.77;;;;;;;;;;5113357;27;20083;-47
2022/03/10 03:19:17;;;;;;;54.70;32.60;;;;;;;;;;5131407;28;20023;-47
2022/03/10 03:21:43;;;;;;;58.33;34.77;;;;;;;;;;5132652;27;20053;-47
2022/03/10 03:24:09;;;;;;;54.93;33.90;;;;;;;;;;5130882;28;20368;-47
2022/03/10 03:26:35;;;;;;;55.83;31.77;;;;;;;;;;5132688;28;20376;-47
2022/03/10 03:29:01;;;;;;;55.77;32.63;;;;;;;;;;5130232;28;20050;-47
2022/03/10 03:31:27;;;;;;;53.97;31.13;;;;;;;;;;5132410;28;20504;-48
2022/03/10 03:33:53;;;;;;;59.67;34.17;;;;;;;;;;5131557;28;20027;-47
2022/03/10 03:36:19;;;;;;;57.23;32.63;;;;;;;;;;5129902;28;20032;-48
2022/03/10 03:38:45;;;;;;;56.07;33.00;;;;;;;;;;5131515;28;20049;-49
2022/03/10 03:41:11;;;;;;;61.40;32.13;;;;;;;;;;5112866;28;20058;-47
2022/03/10 03:43:37;;;;;;;54.67;31.57;;;;;;;;;;5129716;27;20473;-48
2022/03/10 03:46:03;;;;;;;52.80;32.73;;;;;;;;;;5112706;28;20027;-47
2022/03/10 03:48:29;;;;;;;55.97;33.57;;;;;;;;;;5125318;28;20388;-48
2022/03/10 03:50:55;;;;;;;56.80;32.33;;;;;;;;;;5113606;28;20026;-49
2022/03/10 03:53:21;;;;;;;56.70;32.47;;;;;;;;;;5130982;28;20027;-48
2022/03/10 03:55:48;;;;;;;55.50;31.53;;;;;;;;;;5114181;28;20026;-48
2022/03/10 03:58:14;;;;;;;53.50;31.27;;;;;;;;;;5131219;28;20034;-48
2022/03/10 04:00:40;;;;;;;56.23;32.13;;;;;;;;;;5132553;28;20023;-47
2022/03/10 04:03:08;;;;;;;54.50;31.67;;;;;;;;;;5120823;28;20043;-53
2022/03/10 04:05:34;;;;;;;58.33;31.90;;;;;;;;;;5131735;28;20413;-47
2022/03/10 04:08:00;;;;;;;52.60;31.63;;;;;;;;;;5131194;28;20027;-47
2022/03/10 04:10:26;;;;;;;53.03;31.70;;;;;;;;;;5132245;28;20023;-47
2022/03/10 04:12:52;;;;;;;54.33;33.00;;;;;;;;;;5131051;28;20415;-48
2022/03/10 04:15:18;;;;;;;58.13;34.77;;;;;;;;;;5122668;28;20027;-47
2022/03/10 04:17:44;;;;;;;57.23;34.53;;;;;;;;;;5128320;28;20046;-47
2022/03/10 04:20:13;;;;;;;59.00;34.43;;;;;;;;;;5132417;28;20376;-51
2022/03/10 04:22:39;;;;;;;55.17;35.07;;;;;;;;;;5131144;28;20361;-52
2022/03/10 04:25:06;;;;;;;62.17;35.53;;;;;;;;;;5129719;28;20324;-50
2022/03/10 04:27:32;;;;;;;61.80;33.90;;;;;;;;;;5132002;28;20076;-48
2022/03/10 04:30:23;;;;;;;60.90;33.93;;;;;;;;;;5131665;28;20421;-47
2022/03/10 04:32:49;;;;;;;64.67;35.43;;;;;;;;;;5128835;28;20422;-48
2022/03/10 04:35:17;;;;;;;63.47;35.53;;;;;;;;;;5132073;27;20059;-49
2022/03/10 04:37:44;;;;;;;61.63;37.77;;;;;;;;;;5134202;27;20015;-48
2022/03/10 04:40:11;;;;;;;64.50;37.73;;;;;;;;;;5123718;27;20119;-47
2022/03/10 04:42:38;;;;;;;71.43;39.20;;;;;;;;;;5129108;27;20098;-53
2022/03/10 04:45:05;;;;;;;67.20;37.57;;;;;;;;;;5135667;27;20027;-47
2022/03/10 04:47:31;;;;;;;68.73;39.17;;;;;;;;;;5135532;27;20015;-48
2022/03/10 04:49:57;;;;;;;64.80;38.07;;;;;;;;;;5134557;27;20046;-47
2022/03/10 04:52:27;;;;;;;65.10;37.37;;;;;;;;;;5135221;27;20035;-47
2022/03/10 04:54:53;;;;;;;64.83;39.60;;;;;;;;;;5134226;27;20098;-47
2022/03/10 04:57:19;;;;;;;64.83;37.93;;;;;;;;;;5135206;27;20031;-47
2022/03/10 04:59:46;;;;;;;69.70;35.90;;;;;;;;;;5134282;27;20015;-48
2022/03/10 05:02:12;;;;;;;66.80;38.23;;;;;;;;;;5131506;27;20492;-47
2022/03/10 05:04:38;;;;;;;70.20;39.33;;;;;;;;;;5129499;27;20019;-49
2022/03/10 05:07:04;;;;;;;68.80;37.43;;;;;;;;;;5134487;27;20136;-48
2022/03/10 05:09:30;;;;;;;70.77;37.10;;;;;;;;;;5105167;27;20019;-50
2022/03/10 05:11:56;;;;;;;63.83;37.13;;;;;;;;;;5134037;27;20051;-48
2022/03/10 05:14:24;;;;;;;60.00;35.60;;;;;;;;;;5132522;27;20058;-49
2022/03/10 05:16:50;;;;;;;64.03;36.70;;;;;;;;;;5134231;27;20027;-48
2022/03/10 05:19:16;;;;;;;64.07;37.40;;;;;;;;;;5132738;27;20049;-48
2022/03/10 05:21:42;;;;;;;66.10;36.70;;;;;;;;;;5134291;27;20098;-49
2022/03/10 05:24:08;;;;;;;62.80;38.17;;;;;;;;;;5114084;27;20529;-47
2022/03/10 05:26:34;;;;;;;65.43;35.90;;;;;;;;;;5116053;27;20023;-48
2022/03/10 05:29:00;;;;;;;63.13;37.30;;;;;;;;;;5106345;28;20032;-48
2022/03/10 05:31:28;;;;;;;66.83;37.13;;;;;;;;;;5125574;27;20099;-47
2022/03/10 05:33:54;;;;;;;60.77;35.90;;;;;;;;;;5134025;27;20109;-48
2022/03/10 05:36:20;;;;;;;62.63;35.00;;;;;;;;;;5134731;27;20479;-47
2022/03/10 05:38:46;;;;;;;58.97;34.50;;;;;;;;;;5133438;27;20034;-47
2022/03/10 05:41:12;;;;;;;64.53;35.37;;;;;;;;;;5114858;27;20023;-50
2022/03/10 05:43:38;;;;;;;68.43;36.77;;;;;;;;;;5133005;27;20035;-47
2022/03/10 05:46:05;;;;;;;62.93;36.70;;;;;;;;;;5133374;27;20086;-48
2022/03/10 05:48:31;;;;;;;60.13;36.20;;;;;;;;;;5133279;27;20038;-47
2022/03/10 05:50:58;;;;;;;62.63;35.80;;;;;;;;;;5134725;27;20047;-48
2022/03/10 05:53:24;;;;;;;71.60;37.83;;;;;;;;;;5132490;27;20112;-48
2022/03/10 05:55:50;;;;;;;68.30;37.87;;;;;;;;;;5134288;27;20023;-49
2022/03/10 05:58:16;;;;;;;65.97;37.17;;;;;;;;;;5131517;27;20011;-48
2022/03/10 06:00:42;;;;;;;66.90;36.23;;;;;;;;;;5127981;27;20047;-50
2022/03/10 06:03:08;;;;;;;71.03;38.80;;;;;;;;;;5132769;27;20038;-51
2022/03/10 06:05:34;;;;;;;62.93;35.63;;;;;;;;;;5132246;27;20464;-47
2022/03/10 06:08:01;;;;;;;56.80;35.77;;;;;;;;;;5132185;27;20011;-51
2022/03/10 06:10:27;;;;;;;67.47;37.80;;;;;;;;;;5132261;27;20030;-47
2022/03/10 06:12:53;;;;;;;61.23;36.27;;;;;;;;;;5133789;27;20122;-49
2022/03/10 06:15:19;;;;;;;67.43;36.50;;;;;;;;;;5132349;27;20107;-51
2022/03/10 06:17:45;;;;;;;64.97;34.93;;;;;;;;;;5129260;27;20020;-50
2022/03/10 06:20:11;;;;;;;69.27;35.90;;;;;;;;;;5127748;27;20490;-51
2022/03/10 06:22:37;;;;;;;62.13;34.20;;;;;;;;;;5132569;27;20034;-47
2022/03/10 06:25:04;;;;;;;60.97;35.73;;;;;;;;;;5132094;27;20437;-47
2022/03/10 06:27:30;;;;;;;64.27;34.77;;;;;;;;;;5114847;27;20029;-48
2022/03/10 06:29:57;;;;;;;58.30;35.17;;;;;;;;;;5132256;27;20015;-49
2022/03/10 06:32:24;;;;;;;60.77;35.37;;;;;;;;;;5133370;27;20070;-48
2022/03/10 06:34:50;;;;;;;64.43;34.23;;;;;;;;;;5101665;28;20024;-47
2022/03/10 06:37:16;;;;;;;61.13;33.73;;;;;;;;;;5132062;27;20425;-46
2022/03/10 06:39:42;;;;;;;62.47;33.90;;;;;;;;;;5132500;27;20042;-48
2022/03/10 06:42:11;;;;;;;56.97;34.00;;;;;;;;;;5133561;27;20027;-46
2022/03/10 06:44:38;;;;;;;59.40;35.33;;;;;;;;;;5137464;27;20344;-50
2022/03/10 06:47:05;;;;;;;62.40;34.80;;;;;;;;;;5133133;27;20015;-46
2022/03/10 06:49:31;;;;;;;63.07;35.00;;;;;;;;;;5130380;27;20094;-47
2022/03/10 06:51:57;;;;;;;66.20;35.57;;;;;;;;;;5133531;27;20059;-47
2022/03/10 06:54:23;;;;;;;66.43;35.77;;;;;;;;;;5132034;27;20030;-47
2022/03/10 06:56:49;;;;;;;61.33;35.73;;;;;;;;;;5132619;27;20019;-48
2022/03/10 06:59:15;;;;;;;60.03;36.37;;;;;;;;;;5130167;27;20038;-48
2022/03/10 07:01:41;;;;;;;63.13;35.67;;;;;;;;;;5132922;27;20098;-47
2022/03/10 07:04:08;;;;;;;61.30;34.90;;;;;;;;;;5131178;27;20776;-47
2022/03/10 07:06:34;;;;;;;62.53;35.70;;;;;;;;;;5132856;27;20371;-50
2022/03/10 07:09:00;;;;;;;65.93;35.73;;;;;;;;;;5131339;27;20349;-47
2022/03/10 07:11:26;;;;;;;57.97;36.87;;;;;;;;;;5132392;27;20126;-48
2022/03/10 07:13:52;;;;;;;59.97;35.63;;;;;;;;;;5131466;27;20023;-47
2022/03/10 07:16:18;;;;;;;61.90;35.53;;;;;;;;;;5131374;27;20035;-47
2022/03/10 07:18:51;;;;;;;65.90;39.33;;;;;;;;;;5126676;27;20106;-49
2022/03/10 07:21:18;;;;;;;57.97;35.83;;;;;;;;;;5113078;28;20031;-51
2022/03/10 07:23:44;;;;;;;59.87;37.50;;;;;;;;;;5132105;28;20030;-51
2022/03/10 07:26:10;;;;;;;59.00;35.80;;;;;;;;;;5132697;28;20038;-47
2022/03/10 07:28:36;;;;;;;68.57;37.17;;;;;;;;;;5105285;28;20197;-48
2022/03/10 07:31:02;;;;;;;69.53;38.63;;;;;;;;;;5128865;28;20034;-49
2022/03/10 07:33:28;;;;;;;72.37;39.40;;;;;;;;;;5132722;28;20035;-47
2022/03/10 07:35:55;;;;;;;73.13;40.47;;;;;;;;;;5131413;28;20023;-48
2022/03/10 07:38:21;;;;;;;74.97;41.03;;;;;;;;;;5109463;28;20028;-49
2022/03/10 07:40:47;;;;;;;69.93;39.73;;;;;;;;;;5125576;28;20486;-51
2022/03/10 07:43:13;;;;;;;71.47;41.13;;;;;;;;;;5131208;28;20035;-49
2022/03/10 07:45:39;;;;;;;64.63;39.47;;;;;;;;;;5129789;28;20023;-49
2022/03/10 07:48:05;;;;;;;71.63;40.87;;;;;;;;;;5131433;28;20050;-48
2022/03/10 07:50:32;;;;;;;81.13;43.27;;;;;;;;;;5113018;28;20023;-51
2022/03/10 07:52:58;;;;;;;75.07;41.67;;;;;;;;;;5129048;27;20140;-48
2022/03/10 07:55:24;;;;;;;79.53;43.57;;;;;;;;;;5131335;28;20027;-51
2022/03/10 07:57:50;;;;;;;69.10;41.27;;;;;;;;;;5131259;28;20031;-49
2022/03/10 08:00:16;;;;;;;74.70;43.53;;;;;;;;;;5131150;28;20035;-49
2022/03/10 08:02:42;;;;;;;76.57;44.37;;;;;;;;;;5131625;28;20023;-47
2022/03/10 08:05:09;;;;;;;71.43;43.10;;;;;;;;;;5130705;28;20066;-48
2022/03/10 08:07:35;;;;;;;73.30;42.37;;;;;;;;;;5132743;28;20020;-51
2022/03/10 08:10:03;;;;;;;78.27;42.10;;;;;;;;;;5113522;27;20023;-50
2022/03/10 08:12:30;;;;;;;65.20;39.13;;;;;;;;;;5136357;27;20035;-50
2022/03/10 08:14:56;;;;;;;69.47;40.70;;;;;;;;;;5135378;27;20031;-50
2022/03/10 08:17:22;;;;;;;67.07;39.53;;;;;;;;;;5136118;27;20018;-49
2022/03/10 08:19:48;;;;;;;68.13;40.53;;;;;;;;;;5116535;27;20482;-50
2022/03/10 08:22:21;;;;;;;74.90;40.47;;;;;;;;;;5136037;27;20076;-50
2022/03/10 08:24:47;;;;;;;74.93;41.83;;;;;;;;;;5128421;27;20055;-49
2022/03/10 08:27:15;;;;;;;67.33;40.97;;;;;;;;;;5134490;27;20471;-50
2022/03/10 08:29:41;;;;;;;71.07;41.60;;;;;;;;;;5134780;27;20042;-50
2022/03/10 08:32:07;;;;;;;68.80;41.23;;;;;;;;;;5136211;27;20039;-48
2022/03/10 08:34:34;;;;;;;65.03;39.27;;;;;;;;;;5134545;27;20090;-47
2022/03/10 08:37:00;;;;;;;68.60;41.80;;;;;;;;;;5135964;27;20072;-50
2022/03/10 08:39:26;;;;;;;64.77;38.93;;;;;;;;;;5125670;27;20023;-54
2022/03/10 08:41:53;;;;;;;55.70;35.17;;;;;;;;;;5135789;27;20020;-48
2022/03/10 08:44:20;;;;;;;61.80;38.23;;;;;;;;;;5134610;27;20460;-48
2022/03/10 08:46:46;;;;;;;61.80;37.60;;;;;;;;;;5135786;27;20042;-51
2022/03/10 08:49:13;;;;;;;60.57;36.60;;;;;;;;;;5134739;27;20372;-48
2022/03/10 08:51:39;;;;;;;65.13;37.43;;;;;;;;;;5135783;27;20030;-50
2022/03/10 08:54:05;;;;;;;63.93;37.57;;;;;;;;;;5134442;27;20011;-50
2022/03/10 08:56:31;;;;;;;66.60;40.10;;;;;;;;;;5135536;27;20306;-49
2022/03/10 08:58:58;;;;;;;62.00;36.97;;;;;;;;;;5127825;27;20504;-49
2022/03/10 09:01:24;;;;;;;61.27;38.70;;;;;;;;;;5100102;27;20042;-51
2022/03/10 09:03:50;;;;;;;67.73;40.37;;;;;;;;;;5133072;27;20360;-51
2022/03/10 09:06:16;;;;;;;60.13;37.43;;;;;;;;;;5132879;27;20076;-48
2022/03/10 09:08:44;;;;;;;62.90;37.90;;;;;;;;;;5135651;27;20114;-49
2022/03/10 09:11:10;;;;;;;60.40;36.53;;;;;;;;;;5133585;27;20035;-48
2022/03/10 09:13:36;;;;;;;60.83;35.70;;;;;;;;;;5135358;27;20023;-51
2022/03/10 09:16:02;;;;;;;57.93;35.43;;;;;;;;;;5134186;27;20023;-48
2022/03/10 09:18:29;;;;;;;56.17;36.13;;;;;;;;;;5115774;27;20035;-49
2022/03/10 09:20:55;;;;;;;58.00;36.17;;;;;;;;;;5133804;27;20050;-49
2022/03/10 09:23:21;;;;;;;64.60;37.80;;;;;;;;;;5134913;27;20026;-49
2022/03/10 09:25:47;;;;;;;60.60;37.17;;;;;;;;;;5128038;27;20035;-48
2022/03/10 09:28:13;;;;;;;64.00;37.10;;;;;;;;;;5135262;27;20031;-49
2022/03/10 09:30:39;;;;;;;59.60;37.20;;;;;;;;;;5103644;28;20427;-48
2022/03/10 09:33:05;;;;;;;58.50;37.80;;;;;;;;;;5119396;27;20035;-47
2022/03/10 09:35:31;;;;;;;61.53;36.27;;;;;;;;;;5116826;27;20023;-46
2022/03/10 09:37:57;;;;;;;61.43;37.00;;;;;;;;;;5133378;27;20058;-46
2022/03/10 09:40:24;;;;;;;59.97;36.30;;;;;;;;;;5135084;27;20027;-49
2022/03/10 09:42:50;;;;;;;61.77;36.30;;;;;;;;;;5114527;27;20023;-47
2022/03/10 09:45:18;;;;;;;64.13;36.97;;;;;;;;;;5115658;27;20182;-47
2022/03/10 09:47:44;;;;;;;62.03;38.27;;;;;;;;;;5132740;27;20104;-49
2022/03/10 09:50:12;;;;;;;57.70;36.47;;;;;;;;;;5134475;27;20038;-48
2022/03/10 09:52:39;;;;;;;56.37;35.97;;;;;;;;;;5126712;27;20054;-47
2022/03/10 09:55:06;;;;;;;60.20;36.43;;;;;;;;;;5112545;27;20102;-48
2022/03/10 09:57:34;;;;;;;54.47;36.40;;;;;;;;;;5114590;27;20026;-47
2022/03/10 10:00:00;;;;;;;56.00;35.13;;;;;;;;;;5134179;27;20057;-49
2022/03/10 10:02:27;;;;;;;52.03;33.93;;;;;;;;;;5132195;27;20480;-48
2022/03/10 10:04:55;;;;;;;51.13;33.60;;;;;;;;;;5112201;28;20110;-46
2022/03/10 10:07:24;;;;;;;56.23;33.77;;;;;;;;;;5133446;27;20019;-47
2022/03/10 10:09:53;;;;;;;51.43;33.27;;;;;;;;;;5115061;27;20058;-50
2022/03/10 10:12:22;;;;;;;52.53;34.47;;;;;;;;;;5121772;27;20051;-52
2022/03/10 10:14:49;;;;;;;53.20;34.03;;;;;;;;;;5123153;27;20039;-51
2022/03/10 10:17:15;;;;;;;49.77;32.43;;;;;;;;;;5126298;27;20024;-50
2022/03/10 10:19:42;;;;;;;48.17;31.00;;;;;;;;;;5124040;27;20368;-53
2022/03/10 10:22:09;;;;;;;48.27;31.33;;;;;;;;;;5107140;27;20182;-49
2022/03/10 10:24:38;;;;;;;47.80;31.33;;;;;;;;;;5120477;27;20396;-53
2022/03/10 10:27:18;;;;;;;49.50;30.88;;;;;;;;;;5117825;27;20042;-52
2022/03/10 10:29:51;;;;;;;48.03;31.20;;;;;;;;;;5099658;28;20384;-51
2022/03/10 10:32:26;;;;;;;49.67;29.57;;;;;;;;;;5122556;27;20080;-47
2022/03/10 10:35:02;;;;;;;46.37;29.43;;;;;;;;;;5121115;27;20031;-49
2022/03/10 10:37:29;;;;;;;40.45;28.17;;;;;;;;;;5105810;27;20079;-48
2022/03/10 10:39:58;;;;;;;41.72;28.50;;;;;;;;;;5121131;27;20031;-47
2022/03/10 10:42:29;;;;;;;42.72;28.40;;;;;;;;;;5126793;27;20361;-49
2022/03/10 10:44:55;;;;;;;45.83;28.13;;;;;;;;;;5126408;27;20376;-47
2022/03/10 10:47:21;;;;;;;41.78;27.48;;;;;;;;;;5129516;27;20098;-48
2022/03/10 10:50:06;;;;;;;42.77;27.97;;;;;;;;;;5120189;27;20023;-47
2022/03/10 10:52:39;;;;;;;46.17;28.67;;;;;;;;;;5116895;27;20042;-50
2022/03/10 10:55:09;;;;;;;45.25;26.95;;;;;;;;;;5120366;27;20023;-50
2022/03/10 10:57:35;;;;;;;43.42;26.67;;;;;;;;;;5107821;27;20027;-54
2022/03/10 11:00:07;;;;;;;42.47;26.50;;;;;;;;;;5105040;28;20031;-47
2022/03/10 11:02:34;;;;;;;42.35;26.20;;;;;;;;;;5118293;27;20058;-48
2022/03/10 11:05:01;;;;;;;36.20;26.15;;;;;;;;;;5117787;27;20039;-49
2022/03/10 11:07:27;;;;;;;38.30;26.08;;;;;;;;;;5112345;27;20042;-49
2022/03/10 11:09:53;;;;;;;39.47;25.73;;;;;;;;;;5124116;27;20027;-57
2022/03/10 11:12:19;;;;;;;39.30;26.63;;;;;;;;;;5117459;27;20108;-54
2022/03/10 11:14:46;;;;;;;37.33;25.55;;;;;;;;;;5120691;27;20894;-54
2022/03/10 11:17:13;;;;;;;38.25;25.35;;;;;;;;;;5122646;27;20027;-51
2022/03/10 11:22:43;;;;;;;42.42;28.10;;;;;;;;;;5116709;28;20054;-50
2022/03/10 11:25:30;;;;;;;41.00;26.30;;;;;;;;;;5121903;28;20079;-50
2022/03/10 11:27:59;;;;;;;41.13;26.42;;;;;;;;;;5120640;28;20043;-49
2022/03/10 11:30:26;;;;;;;39.40;27.15;;;;;;;;;;5106934;28;20031;-50
2022/03/10 11:33:27;;;;;;;38.10;27.13;;;;;;;;;;5104464;28;20055;-49
2022/03/10 11:35:53;;;;;;;40.88;27.77;;;;;;;;;;5034350;28;20397;-50
2022/03/10 11:38:19;;;;;;;39.30;27.20;;;;;;;;;;5103987;28;20421;-47
2022/03/10 11:40:52;;;;;;;41.10;27.10;;;;;;;;;;5122109;28;20023;-49
2022/03/10 11:43:20;;;;;;;38.63;27.52;;;;;;;;;;5121986;27;20027;-47
2022/03/10 11:45:46;;;;;;;38.08;26.48;;;;;;;;;;5123850;27;20049;-50
2022/03/10 11:48:25;;;;;;;39.70;26.55;;;;;;;;;;5127262;27;20020;-51
2022/03/10 11:50:51;;;;;;;44.47;29.23;;;;;;;;;;5120773;27;20392;-49
2022/03/10 11:53:17;;;;;;;40.35;27.70;;;;;;;;;;5121818;27;20353;-51
2022/03/10 11:55:54;;;;;;;38.38;26.30;;;;;;;;;;5128933;27;20476;-49
2022/03/10 11:58:20;;;;;;;42.92;28.75;;;;;;;;;;5118676;27;20024;-47
2022/03/10 12:00:52;;;;;;;44.05;26.95;;;;;;;;;;5129732;27;20031;-47
2022/03/10 12:03:18;;;;;;;37.20;24.92;;;;;;;;;;5134786;27;20043;-47
2022/03/10 12:06:04;;;;;;;40.63;26.42;;;;;;;;;;5136464;27;20444;-49
2022/03/10 12:08:31;;;;;;;33.35;24.05;;;;;;;;;;5136180;27;20429;-47
2022/03/10 12:11:01;;;;;;;38.33;26.83;;;;;;;;;;5136363;27;20082;-47
2022/03/10 12:13:28;;;;;;;36.15;24.98;;;;;;;;;;5119584;27;20027;-48
2022/03/10 12:15:54;;;;;;;38.10;26.02;;;;;;;;;;5136619;27;20023;-53
2022/03/10 12:18:23;;;;;;;35.47;26.00;;;;;;;;;;5134361;27;20019;-49
2022/03/10 12:20:50;;;;;;;35.97;26.70;;;;;;;;;;5134630;27;20117;-50
2022/03/10 12:23:17;;;;;;;34.63;25.60;;;;;;;;;;5135812;27;20019;-47
2022/03/10 12:25:44;;;;;;;39.10;26.77;;;;;;;;;;5134619;27;20026;-50
2022/03/10 12:28:11;;;;;;;42.58;27.58;;;;;;;;;;5135729;27;20015;-49
2022/03/10 12:30:44;;;;;;;40.83;25.98;;;;;;;;;;5130763;27;20672;-48
2022/03/10 12:33:11;;;;;;;37.30;26.75;;;;;;;;;;5132248;27;20094;-47
2022/03/10 12:35:38;;;;;;;40.70;28.52;;;;;;;;;;5133975;27;20038;-48
2022/03/10 12:38:05;;;;;;;37.10;26.80;;;;;;;;;;5126402;27;20020;-49
2022/03/10 12:40:32;;;;;;;37.95;26.17;;;;;;;;;;5125983;27;20015;-50
2022/03/10 12:42:59;;;;;;;36.67;25.35;;;;;;;;;;5139487;27;20035;-51
2022/03/10 12:45:26;;;;;;;39.05;27.75;;;;;;;;;;5128733;27;20034;-53
2022/03/10 12:48:10;;;;;;;39.75;26.40;;;;;;;;;;5122127;27;20027;-53
2022/03/10 12:50:36;;;;;;;35.80;26.63;;;;;;;;;;5127170;27;20088;-52
2022/03/10 12:53:13;;;;;;;38.22;26.27;;;;;;;;;;5126640;27;20505;-50
2022/03/10 12:55:39;;;;;;;35.90;25.70;;;;;;;;;;5132684;27;20043;-48
2022/03/10 12:58:06;;;;;;;38.40;26.70;;;;;;;;;;5135009;27;20026;-46
2022/03/10 13:00:35;;;;;;;40.38;27.60;;;;;;;;;;5131960;27;20068;-50
2022/03/10 13:03:02;;;;;;;42.40;29.40;;;;;;;;;;5143245;27;20043;-52
2022/03/10 13:05:29;;;;;;;38.47;26.90;;;;;;;;;;5133863;27;20031;-53
2022/03/10 13:08:04;;;;;;;38.13;27.08;;;;;;;;;;5120950;27;20015;-50
2022/03/10 13:10:30;;;;;;;39.63;27.08;;;;;;;;;;5133653;27;20051;-49
2022/03/10 13:12:56;;;;;;;38.13;26.95;;;;;;;;;;5134524;27;20099;-49
2022/03/10 13:15:24;;;;;;;42.72;27.17;;;;;;;;;;5131052;27;20027;-51
2022/03/10 13:17:51;;;;;;;36.45;25.40;;;;;;;;;;5134007;27;20027;-49
2022/03/10 13:20:20;;;;;;;36.88;26.52;;;;;;;;;;5115480;27;20487;-49
2022/03/10 13:23:01;;;;;;;37.00;27.25;;;;;;;;;;5132829;27;20106;-50
2022/03/10 13:25:40;;;;;;;37.17;26.08;;;;;;;;;;5126203;27;20027;-49
2022/03/10 13:28:07;;;;;;;34.55;26.20;;;;;;;;;;5134674;27;20087;-49
2022/03/10 13:30:35;;;;;;;37.78;25.83;;;;;;;;;;5132743;27;20030;-52
2022/03/10 13:33:02;;;;;;;36.45;25.60;;;;;;;;;;5132591;27;20035;-49
2022/03/10 13:35:29;;;;;;;37.65;27.08;;;;;;;;;;5134651;27;20376;-49
2022/03/10 13:37:56;;;;;;;36.75;26.08;;;;;;;;;;5115331;27;20424;-49
2022/03/10 13:40:23;;;;;;;38.55;26.80;;;;;;;;;;5134641;27;20467;-48
2022/03/10 13:42:51;;;;;;;33.75;25.25;;;;;;;;;;5132235;27;20097;-48
2022/03/10 13:45:17;;;;;;;39.50;27.85;;;;;;;;;;5131049;27;20107;-52
2022/03/10 13:48:05;;;;;;;38.65;26.20;;;;;;;;;;5132233;27;20031;-47
2022/03/10 13:50:32;;;;;;;36.95;26.38;;;;;;;;;;5134797;27;20020;-47
2022/03/10 13:53:00;;;;;;;38.75;26.35;;;;;;;;;;5133438;27;20039;-47
2022/03/10 13:55:30;;;;;;;38.83;27.08;;;;;;;;;;5117342;27;20019;-49
2022/03/10 13:57:56;;;;;;;38.22;26.10;;;;;;;;;;5103659;27;20027;-51
2022/03/10 14:00:30;;;;;;;34.92;24.77;;;;;;;;;;5134442;27;20015;-50
2022/03/10 14:02:56;;;;;;;36.40;25.35;;;;;;;;;;5133159;27;20072;-52
2022/03/10 14:05:22;;;;;;;35.47;25.77;;;;;;;;;;5115297;27;20019;-52
2022/03/10 14:08:09;;;;;;;33.58;25.63;;;;;;;;;;5132870;27;20011;-53
2022/03/10 14:10:35;;;;;;;37.97;25.55;;;;;;;;;;5132707;27;20117;-48
2022/03/10 14:13:02;;;;;;;37.33;24.23;;;;;;;;;;5132624;27;20049;-54
2022/03/10 14:15:29;;;;;;;33.83;23.98;;;;;;;;;;5126610;27;20058;-49
2022/03/10 14:17:58;;;;;;;35.10;23.90;;;;;;;;;;5125604;27;20019;-52
2022/03/10 14:20:39;;;;;;;39.22;27.02;;;;;;;;;;5122504;27;20456;-51
2022/03/10 14:23:06;;;;;;;43.10;26.95;;;;;;;;;;5131923;27;20015;-47
2022/03/10 14:25:39;;;;;;;47.28;27.98;;;;;;;;;;5129271;27;20027;-49
2022/03/10 14:28:09;;;;;;;42.03;27.55;;;;;;;;;;5120591;27;20464;-49
2022/03/10 14:30:37;;;;;;;39.45;25.15;;;;;;;;;;5126842;27;20031;-53
2022/03/10 14:33:04;;;;;;;42.28;27.40;;;;;;;;;;5124845;27;20036;-51